Time;durP1;ratioP1;P1;durP2;ratioP2;P2;SDS_P1;SDS_P2;PMS_P1;PMS_P2;Temp;Humidity;BMP_temperature;BMP_pressure;BME280_temperature;BME280_humidity;BME280_pressure;Samples;Min_cycle;Max_cycle;Signal;HPM_P1;HPM_P2
2021/12/31 00:00:54;;;;;;;1999.90;999.90;;;;;;;7.78;68.09;101108.66;4961759;28;96965;-76
2021/12/31 00:03:22;;;;;;;1999.90;999.90;;;;;;;7.78;67.99;101104.22;4959807;28;98144;-76
2021/12/31 00:05:49;;;;;;;1999.90;999.90;;;;;;;7.81;67.85;101109.66;4963757;28;99733;-77
2021/12/31 00:08:17;;;;;;;1999.90;999.90;;;;;;;7.85;67.88;101114.25;4962605;28;96979;-76
2021/12/31 00:10:45;;;;;;;1999.90;999.90;;;;;;;7.89;67.80;101117.91;4948266;28;96845;-76
2021/12/31 00:13:12;;;;;;;1999.90;999.90;;;;;;;7.91;67.55;101118.88;4942178;28;100297;-76
2021/12/31 00:15:40;;;;;;;1999.90;999.90;;;;;;;7.91;67.72;101113.56;4941909;28;99226;-76
2021/12/31 00:18:10;;;;;;;1999.90;999.90;;;;;;;7.93;67.70;101120.69;4945441;28;98441;-76
2021/12/31 00:20:40;;;;;;;1999.90;999.90;;;;;;;7.92;67.68;101121.56;4965820;28;96880;-76
2021/12/31 00:23:10;;;;;;;1999.90;999.90;;;;;;;7.94;67.67;101129.56;4965803;28;99016;-76
2021/12/31 00:25:40;;;;;;;1999.90;999.90;;;;;;;7.97;67.85;101130.56;4958773;28;99195;-76
2021/12/31 00:28:08;;;;;;;1999.90;999.90;;;;;;;8.00;67.53;101125.38;4964149;28;97062;-76
2021/12/31 00:30:36;;;;;;;1999.90;999.90;;;;;;;8.02;67.51;101125.47;4960392;28;96887;-76
2021/12/31 00:33:04;;;;;;;1999.90;999.90;;;;;;;8.01;67.71;101121.91;4947973;28;99072;-76
2021/12/31 00:35:34;;;;;;;1999.90;999.90;;;;;;;8.01;67.67;101126.28;4962192;28;98049;-76
2021/12/31 00:38:02;;;;;;;1999.90;999.90;;;;;;;8.05;67.62;101129.13;4958959;28;97048;-76
2021/12/31 00:40:30;;;;;;;1999.90;999.90;;;;;;;8.04;67.50;101129.97;4964946;28;97346;-76
2021/12/31 00:42:58;;;;;;;1999.90;999.90;;;;;;;8.09;67.51;101128.38;4958003;28;98013;-76
2021/12/31 00:45:26;;;;;;;1999.90;999.90;;;;;;;8.12;67.22;101125.84;4941997;28;100066;-76
2021/12/31 00:47:54;;;;;;;1999.90;999.90;;;;;;;8.12;67.34;101130.25;4958391;28;99509;-76
2021/12/31 00:50:21;;;;;;;1999.90;999.90;;;;;;;8.11;67.46;101126.69;4957698;28;97330;-75
2021/12/31 00:52:51;;;;;;;1999.90;999.90;;;;;;;8.13;67.37;101127.63;4941874;28;100635;-76
2021/12/31 00:55:18;;;;;;;1999.90;999.90;;;;;;;8.13;67.61;101130.28;4960100;28;99055;-76
2021/12/31 00:57:46;;;;;;;1999.90;999.90;;;;;;;8.14;67.58;101137.41;4964214;28;96782;-76
2021/12/31 01:00:16;;;;;;;1999.90;999.90;;;;;;;8.18;67.24;101122.53;4963766;28;97833;-76
2021/12/31 01:02:46;;;;;;;1999.90;999.90;;;;;;;8.17;67.32;101124.25;4939902;28;100509;-74
2021/12/31 01:05:14;;;;;;;1999.90;999.90;;;;;;;8.20;67.46;101131.44;4961088;28;97634;-76
2021/12/31 01:07:43;;;;;;;1999.90;999.90;;;;;;;8.21;67.40;101130.56;4953950;28;96797;-76
2021/12/31 01:10:15;;;;;;;1999.90;999.90;;;;;;;8.20;67.27;101137.59;4962180;28;96823;-76
2021/12/31 01:12:43;;;;;;;1999.90;999.90;;;;;;;8.22;67.13;101127.97;4946012;28;100982;-76
2021/12/31 01:15:18;;;;;;;1999.90;999.90;;;;;;;8.21;67.29;101123.53;4945691;28;99962;-76
2021/12/31 01:18:04;;;;;;;1999.90;999.90;;;;;;;8.20;67.46;101126.13;4965416;28;96938;-76
2021/12/31 01:20:31;;;;;;;1999.90;999.90;;;;;;;8.26;67.17;101138.72;4944899;28;97614;-75
2021/12/31 01:22:59;;;;;;;1999.90;999.90;;;;;;;8.23;67.19;101143.03;4964436;28;98118;-76
2021/12/31 01:25:28;;;;;;;1999.90;999.90;;;;;;;8.25;67.13;101145.75;4962138;28;96554;-77
2021/12/31 01:27:56;;;;;;;1999.90;999.90;;;;;;;8.24;67.17;101149.22;4946962;28;97275;-73
2021/12/31 01:30:23;;;;;;;1999.90;999.90;;;;;;;8.25;67.23;101145.75;4959785;28;100378;-74
2021/12/31 01:32:51;;;;;;;1999.90;999.90;;;;;;;8.26;67.09;101147.53;4958444;28;97633;-74
2021/12/31 01:35:19;;;;;;;1999.90;999.90;;;;;;;8.25;67.21;101156.34;4964667;28;97725;-74
2021/12/31 01:37:47;;;;;;;1999.90;999.90;;;;;;;8.26;67.17;101152.84;4959293;28;97119;-75
2021/12/31 01:40:15;;;;;;;1999.90;999.90;;;;;;;8.26;67.21;101150.19;4946842;28;96824;-75
2021/12/31 01:42:44;;;;;;;1999.90;999.90;;;;;;;8.27;67.22;101159.97;4959875;28;98664;-76
2021/12/31 01:45:17;;;;;;;1999.90;999.90;;;;;;;8.27;66.73;101159.06;4945082;28;99668;-75
2021/12/31 01:47:56;;;;;;;1999.90;999.90;;;;;;;8.30;66.96;101156.50;4961050;28;96772;-75
2021/12/31 01:50:27;;;;;;;1999.90;999.90;;;;;;;8.27;67.23;101154.66;4946683;28;99144;-75
2021/12/31 01:52:55;;;;;;;1999.90;999.90;;;;;;;8.24;67.24;101160.75;4957572;28;98835;-75
2021/12/31 01:55:25;;;;;;;1999.90;999.90;;;;;;;8.23;67.21;101166.00;4951829;28;97733;-75
2021/12/31 01:57:55;;;;;;;1999.90;999.90;;;;;;;8.23;67.10;101152.75;4956051;28;98164;-75
2021/12/31 02:00:23;;;;;;;1999.90;999.90;;;;;;;8.26;67.07;101149.31;4942845;28;99269;-74
2021/12/31 02:02:52;;;;;;;1999.90;999.90;;;;;;;8.24;67.17;101144.84;4961947;28;97824;-75
2021/12/31 02:05:21;;;;;;;1999.90;999.90;;;;;;;8.20;67.33;101136.72;4961535;28;99169;-75
2021/12/31 02:07:49;;;;;;;1999.90;999.90;;;;;;;8.19;67.21;101140.22;4967225;28;97193;-75
2021/12/31 02:10:17;;;;;;;1999.90;999.90;;;;;;;8.18;67.18;101154.31;4965844;28;96809;-75
2021/12/31 02:12:46;;;;;;;1999.90;999.90;;;;;;;8.19;67.09;101143.78;4963284;28;97953;-75
2021/12/31 02:15:16;;;;;;;1999.90;999.90;;;;;;;8.19;66.94;101149.06;4947829;28;99275;-76
2021/12/31 02:17:47;;;;;;;1999.90;999.90;;;;;;;8.21;67.06;101150.03;4963858;28;96847;-75
2021/12/31 02:20:17;;;;;;;1999.90;999.90;;;;;;;8.19;67.05;101148.16;4946757;28;96869;-74
2021/12/31 02:22:53;;;;;;;1999.90;999.90;;;;;;;8.24;66.88;101147.50;4962626;28;98917;-75
2021/12/31 02:25:23;;;;;;;1999.90;999.90;;;;;;;8.24;66.52;101155.44;4969880;28;99490;-75
2021/12/31 02:27:51;;;;;;;1999.90;999.90;;;;;;;8.22;66.91;101156.25;4972444;28;97597;-75
2021/12/31 02:30:19;;;;;;;1999.90;999.90;;;;;;;8.23;66.64;101158.94;4978406;28;96840;-74
2021/12/31 02:32:46;;;;;;;1999.90;999.90;;;;;;;8.22;66.67;101172.16;4960844;28;99233;-75
2021/12/31 02:35:15;;;;;;;1999.90;999.90;;;;;;;8.22;66.72;101164.22;4959581;28;98048;-74
2021/12/31 02:37:44;;;;;;;1999.90;999.90;;;;;;;8.22;66.64;101162.44;4973407;28;97342;-75
2021/12/31 02:40:14;;;;;;;1999.90;999.90;;;;;;;8.25;66.39;101166.97;4970019;28;97167;-75
2021/12/31 02:42:42;;;;;;;1999.90;999.90;;;;;;;8.24;66.38;101158.09;4948000;28;100767;-75
2021/12/31 02:45:11;;;;;;;1999.90;999.90;;;;;;;8.23;66.43;101169.56;4973716;28;97675;-75
2021/12/31 02:47:44;;;;;;;1999.90;999.90;;;;;;;8.22;66.64;101173.03;4952668;28;96932;-75
2021/12/31 02:50:13;;;;;;;1999.90;999.90;;;;;;;8.19;66.58;101183.53;4966140;28;96662;-75
2021/12/31 02:52:42;;;;;;;1999.90;999.90;;;;;;;8.13;66.81;101163.84;4949997;28;99046;-76
2021/12/31 02:55:12;;;;;;;1999.90;999.90;;;;;;;8.11;67.04;101150.53;4962803;28;98740;-75
2021/12/31 02:57:40;;;;;;;1999.90;999.90;;;;;;;8.09;66.73;101138.97;4965322;28;96961;-75
2021/12/31 03:00:09;;;;;;;1999.90;999.90;;;;;;;8.00;66.89;101146.59;4966351;28;96787;-76
2021/12/31 03:02:37;;;;;;;1999.90;999.90;;;;;;;7.97;67.14;101149.13;4944535;28;98099;-74
2021/12/31 03:05:06;;;;;;;1999.90;999.90;;;;;;;7.91;67.19;101143.59;4942950;28;99222;-76
2021/12/31 03:07:35;;;;;;;1999.90;999.90;;;;;;;7.92;67.08;101140.13;4948152;28;97828;-74
2021/12/31 03:10:03;;;;;;;1999.90;999.90;;;;;;;7.87;67.10;101148.72;4955261;28;96859;-75
2021/12/31 03:12:32;;;;;;;1999.90;999.90;;;;;;;7.87;67.13;101146.09;4961161;28;97661;-76
2021/12/31 03:15:00;;;;;;;1999.90;999.90;;;;;;;7.87;67.17;101157.59;4943565;28;98790;-73
2021/12/31 03:17:28;;;;;;;1999.90;999.90;;;;;;;7.87;67.26;101154.03;4933149;28;96749;-75
2021/12/31 03:20:08;;;;;;;1999.90;999.90;;;;;;;7.89;67.04;101150.56;4964040;28;96973;-75
2021/12/31 03:22:36;;;;;;;1999.90;999.90;;;;;;;7.88;66.95;101169.97;4960304;28;98170;-75
2021/12/31 03:25:04;;;;;;;1999.90;999.90;;;;;;;7.89;66.92;101169.13;4948925;28;98459;-75
2021/12/31 03:27:33;;;;;;;1999.90;999.90;;;;;;;7.86;66.94;101166.38;4965019;28;97662;-75
2021/12/31 03:30:01;;;;;;;1999.90;999.90;;;;;;;7.91;67.01;101174.50;4957897;28;97840;-73
2021/12/31 03:32:30;;;;;;;1999.90;999.90;;;;;;;7.91;66.87;101164.78;4943605;28;100599;-74
2021/12/31 03:34:58;;;;;;;1999.90;999.90;;;;;;;7.92;66.86;101161.31;4955248;28;97581;-75
2021/12/31 03:37:25;;;;;;;1999.90;999.90;;;;;;;7.92;66.84;101163.97;4965559;28;97198;-75
2021/12/31 03:39:53;;;;;;;1999.90;999.90;;;;;;;7.93;66.77;101157.81;4966373;28;98614;-74
2021/12/31 03:42:21;;;;;;;1999.90;999.90;;;;;;;7.93;66.86;101155.16;4963069;28;100941;-75
2021/12/31 03:44:50;;;;;;;1999.90;999.90;;;;;;;7.93;66.69;101163.09;4937976;28;99169;-74
2021/12/31 03:47:18;;;;;;;1999.90;999.90;;;;;;;7.93;66.65;101159.56;4965218;28;96768;-74
2021/12/31 03:49:45;;;;;;;1999.90;999.90;;;;;;;7.93;66.54;101152.50;4942876;28;97021;-75
2021/12/31 03:52:13;;;;;;;1999.90;999.90;;;;;;;7.93;66.67;101157.81;4964637;28;97813;-75
2021/12/31 03:54:41;;;;;;;1999.90;999.90;;;;;;;7.94;66.47;101143.72;4961649;28;98701;-75
2021/12/31 03:57:08;;;;;;;1999.90;999.90;;;;;;;7.97;66.50;101148.22;4948568;28;97432;-74
2021/12/31 03:59:36;;;;;;;1999.90;999.90;;;;;;;7.97;66.51;101137.63;4966640;28;98114;-76
2021/12/31 04:02:05;;;;;;;1999.90;999.90;;;;;;;7.98;66.40;101128.84;4957597;28;98762;-75
2021/12/31 04:04:33;;;;;;;1999.90;999.90;;;;;;;8.00;66.55;101146.59;4945750;28;96929;-75
2021/12/31 04:07:00;;;;;;;1999.90;999.90;;;;;;;7.97;66.49;101143.81;4958774;28;97607;-75
2021/12/31 04:09:28;;;;;;;1999.90;999.90;;;;;;;7.96;66.44;101147.34;4970802;28;96793;-76
2021/12/31 04:11:56;;;;;;;1999.90;999.90;;;;;;;7.95;66.38;101140.22;4963928;28;97651;-75
2021/12/31 04:14:23;;;;;;;1999.90;999.90;;;;;;;7.94;66.42;101137.50;4963861;28;98722;-76
2021/12/31 04:16:52;;;;;;;1999.90;999.90;;;;;;;7.91;66.49;101138.28;4957673;28;96741;-75
2021/12/31 04:19:21;;;;;;;1999.90;999.90;;;;;;;7.90;66.43;101125.91;4965291;28;96715;-76
2021/12/31 04:21:50;;;;;;;1999.90;999.90;;;;;;;7.88;66.30;101127.59;4959908;28;97574;-76
2021/12/31 04:24:29;;;;;;;1999.90;999.90;;;;;;;7.85;66.33;101127.47;4948464;28;97423;-76
2021/12/31 04:26:56;;;;;;;1999.90;999.90;;;;;;;7.87;66.22;101125.81;4942666;28;96858;-75
2021/12/31 04:29:24;;;;;;;1999.90;999.90;;;;;;;7.82;66.32;101124.69;4947098;28;97490;-76
2021/12/31 04:31:52;;;;;;;1999.90;999.90;;;;;;;7.78;66.21;101117.47;4964033;28;99215;-75
2021/12/31 04:34:21;;;;;;;1999.90;999.90;;;;;;;7.75;66.35;101120.03;4966420;28;99108;-75
2021/12/31 04:36:49;;;;;;;1999.90;999.90;;;;;;;7.75;66.19;101117.38;4959292;28;98108;-76
2021/12/31 04:39:17;;;;;;;1999.90;999.90;;;;;;;7.75;66.29;101121.75;4964824;28;96934;-76
2021/12/31 04:41:44;;;;;;;1999.90;999.90;;;;;;;7.72;66.07;101121.66;4966027;28;97404;-76
2021/12/31 04:44:12;;;;;;;1999.90;999.90;;;;;;;7.74;66.11;101138.50;4938176;28;99510;-76
2021/12/31 04:46:40;;;;;;;1999.90;999.90;;;;;;;7.70;66.09;101141.88;4973483;28;97489;-75
2021/12/31 04:49:07;;;;;;;1999.90;999.90;;;;;;;7.69;65.97;101138.31;4973316;28;96786;-75
2021/12/31 04:51:39;;;;;;;1999.90;999.90;;;;;;;7.66;65.87;101139.94;4974516;28;98037;-75
2021/12/31 04:54:14;;;;;;;1999.90;999.90;;;;;;;7.65;65.92;101133.78;4938346;28;99470;-75
2021/12/31 04:56:42;;;;;;;1999.90;999.90;;;;;;;7.65;66.11;101139.06;4967829;28;97261;-75
2021/12/31 04:59:10;;;;;;;1999.90;999.90;;;;;;;7.66;65.99;101146.16;4972428;28;98645;-76
2021/12/31 05:01:37;;;;;;;1999.90;999.90;;;;;;;7.66;65.69;101135.56;4962872;28;99073;-75
2021/12/31 05:04:05;;;;;;;1999.90;999.90;;;;;;;7.65;65.65;101146.09;4963522;28;98917;-77
2021/12/31 05:06:34;;;;;;;1999.90;999.90;;;;;;;7.66;65.59;101146.16;4943293;28;97935;-75
2021/12/31 05:09:03;;;;;;;1999.90;999.90;;;;;;;7.68;65.57;101159.44;4958524;28;96783;-76
2021/12/31 05:11:30;;;;;;;1999.90;999.90;;;;;;;7.67;65.65;101145.34;4943689;28;97971;-74
2021/12/31 05:13:58;;;;;;;1999.90;999.90;;;;;;;7.67;65.76;101142.69;4959133;28;97533;-76
2021/12/31 05:16:26;;;;;;;1999.90;999.90;;;;;;;7.69;65.46;101143.63;4965256;28;96843;-74
2021/12/31 05:18:53;;;;;;;1999.90;999.90;;;;;;;7.70;65.38;101153.38;4959202;28;96832;-76
2021/12/31 05:21:21;;;;;;;1999.90;999.90;;;;;;;7.69;65.38;101140.97;4956673;28;98254;-74
2021/12/31 05:23:49;;;;;;;1999.90;999.90;;;;;;;7.68;65.41;101139.19;4959683;28;97819;-75
2021/12/31 05:26:19;;;;;;;1999.90;999.90;;;;;;;7.70;65.32;101139.22;4958077;28;96967;-75
2021/12/31 05:28:46;;;;;;;1999.90;999.90;;;;;;;7.70;65.41;101142.78;4957262;28;96949;-75
2021/12/31 05:31:14;;;;;;;1999.90;999.90;;;;;;;7.71;65.53;101144.59;4960146;28;97719;-74
2021/12/31 05:33:42;;;;;;;1999.90;999.90;;;;;;;7.70;65.42;101152.47;4955760;28;98020;-75
2021/12/31 05:36:10;;;;;;;1999.90;999.90;;;;;;;7.71;65.30;101144.59;4958006;28;96767;-75
2021/12/31 05:38:37;;;;;;;1999.90;999.90;;;;;;;7.71;65.16;101139.28;4941406;28;96889;-75
2021/12/31 05:41:05;;;;;;;1999.90;999.90;;;;;;;7.70;65.31;101144.53;4954970;28;98628;-75
2021/12/31 05:43:34;;;;;;;1999.90;999.90;;;;;;;7.71;65.46;101139.28;4958933;28;98003;-74
2021/12/31 05:46:02;;;;;;;1999.90;999.90;;;;;;;7.72;65.30;101135.81;4957745;28;97366;-74
2021/12/31 05:48:30;;;;;;;1999.90;999.90;;;;;;;7.71;65.30;101144.59;4937909;28;97212;-73
2021/12/31 05:50:58;;;;;;;1999.90;999.90;;;;;;;7.71;65.26;101144.59;4962486;28;99089;-75
2021/12/31 05:53:26;;;;;;;1999.90;999.90;;;;;;;7.69;65.06;101140.97;4959573;28;97542;-74
2021/12/31 05:55:54;;;;;;;1999.90;999.90;;;;;;;7.70;64.95;101136.59;4937056;28;97796;-75
2021/12/31 05:58:21;;;;;;;1999.90;999.90;;;;;;;7.70;64.94;101137.50;4955041;28;96955;-75
2021/12/31 06:00:50;;;;;;;1999.90;999.90;;;;;;;7.72;64.98;101127.88;4958477;28;97576;-75
2021/12/31 06:03:18;;;;;;;1999.90;999.90;;;;;;;7.75;65.11;101129.69;4939133;28;99741;-75
2021/12/31 06:05:47;;;;;;;1999.90;999.90;;;;;;;7.76;65.10;101108.59;4957306;28;97125;-76
2021/12/31 06:08:14;;;;;;;1999.90;999.90;;;;;;;7.79;65.12;101119.28;4954463;28;96871;-75
2021/12/31 06:10:42;;;;;;;1999.90;999.90;;;;;;;7.80;64.92;101134.34;4957512;28;97661;-74
2021/12/31 06:13:12;;;;;;;1999.90;999.90;;;;;;;7.79;64.70;101135.19;4959774;28;98642;-75
2021/12/31 06:15:42;;;;;;;1999.90;999.90;;;;;;;7.82;64.89;101142.38;4958080;28;97680;-75
2021/12/31 06:18:11;;;;;;;1999.90;999.90;;;;;;;7.83;64.75;101142.41;4942732;28;96871;-75
2021/12/31 06:20:41;;;;;;;1999.90;999.90;;;;;;;7.86;64.65;101139.88;4958738;28;97888;-75
2021/12/31 06:23:09;;;;;;;1999.90;999.90;;;;;;;7.87;64.77;101139.03;4956410;28;98840;-75
2021/12/31 06:25:37;;;;;;;1999.90;999.90;;;;;;;7.87;64.29;101140.78;4950788;28;97219;-76
2021/12/31 06:28:05;;;;;;;1999.90;999.90;;;;;;;7.90;64.51;101144.44;4926602;28;97178;-73
2021/12/31 06:30:32;;;;;;;1999.90;999.90;;;;;;;7.92;64.38;101150.72;4954967;28;97990;-73
2021/12/31 06:33:00;;;;;;;1999.90;999.90;;;;;;;7.93;64.68;101157.81;4940867;28;97300;-74
2021/12/31 06:35:31;;;;;;;1999.90;999.90;;;;;;;7.94;64.36;101154.31;4954618;28;97253;-74
2021/12/31 06:38:01;;;;;;;1999.90;999.90;;;;;;;7.94;64.44;101149.03;4957957;28;96755;-74
2021/12/31 06:40:29;;;;;;;1999.90;999.90;;;;;;;7.93;64.38;101141.91;4960165;28;99727;-74
2021/12/31 06:42:56;;;;;;;1999.90;999.90;;;;;;;7.95;64.40;101140.22;4958661;28;100694;-73
2021/12/31 06:45:24;;;;;;;1999.90;999.90;;;;;;;7.97;64.16;101133.22;4952114;28;99153;-72
2021/12/31 06:47:52;;;;;;;1999.90;999.90;;;;;;;7.98;64.25;101140.31;4938492;28;98982;-74
2021/12/31 06:50:20;;;;;;;1999.90;999.90;;;;;;;7.99;64.32;101141.22;4956382;28;98920;-74
2021/12/31 06:52:49;;;;;;;1999.90;999.90;;;;;;;7.98;64.22;101150.91;4958159;28;98694;-75
2021/12/31 06:55:16;;;;;;;1999.90;999.90;;;;;;;8.00;64.43;101159.84;4952050;28;97285;-74
2021/12/31 06:57:50;;;;;;;1999.90;999.90;;;;;;;7.98;63.83;101153.56;4949568;28;97538;-71
2021/12/31 07:00:18;;;;;;;1999.90;999.90;;;;;;;8.01;64.20;101156.34;4955415;28;97335;-75
2021/12/31 07:02:46;;;;;;;1999.90;999.90;;;;;;;8.04;64.20;101152.91;4958394;28;98141;-74
2021/12/31 07:05:13;;;;;;;1999.90;999.90;;;;;;;8.05;64.26;101155.63;4955481;28;96970;-75
2021/12/31 07:07:41;;;;;;;1999.90;999.90;;;;;;;8.06;64.25;101152.13;4943468;28;97198;-74
2021/12/31 07:10:15;;;;;;;1999.90;999.90;;;;;;;8.10;63.84;101154.03;4956698;28;96741;-75
2021/12/31 07:12:44;;;;;;;1999.90;999.90;;;;;;;8.14;63.94;101158.63;4952026;28;97271;-74
2021/12/31 07:15:12;;;;;;;1999.90;999.90;;;;;;;8.14;63.73;101155.97;4956618;28;98568;-74
2021/12/31 07:17:40;;;;;;;1999.90;999.90;;;;;;;8.14;63.60;101148.00;4936179;28;96883;-75
2021/12/31 07:20:09;;;;;;;1999.90;999.90;;;;;;;8.15;63.82;101157.75;4961798;28;99207;-74
2021/12/31 07:22:38;;;;;;;1999.90;999.90;;;;;;;8.15;63.77;101143.59;4960358;28;97018;-74
2021/12/31 07:25:07;;;;;;;1999.90;999.90;;;;;;;8.14;63.83;101149.75;4958903;28;97505;-73
2021/12/31 07:27:36;;;;;;;1999.90;999.90;;;;;;;8.13;63.84;101132.94;4959200;28;96772;-75
2021/12/31 07:30:04;;;;;;;1999.90;999.90;;;;;;;8.12;63.57;101133.81;4939741;28;99291;-75
2021/12/31 07:32:35;;;;;;;1999.90;999.90;;;;;;;8.13;63.57;101138.25;4961855;28;98903;-75
2021/12/31 07:35:04;;;;;;;1999.90;999.90;;;;;;;8.14;63.58;101137.41;4943992;28;97100;-74
2021/12/31 07:37:31;;;;;;;1999.90;999.90;;;;;;;8.15;63.52;101151.53;4958300;28;98971;-74
2021/12/31 07:40:03;;;;;;;1999.90;999.90;;;;;;;8.13;63.48;101140.88;4943514;28;99334;-74
2021/12/31 07:42:31;;;;;;;1999.90;999.90;;;;;;;8.13;63.50;101135.59;4956677;28;97219;-74
2021/12/31 07:44:59;;;;;;;1999.90;999.90;;;;;;;8.14;63.47;101128.53;4929589;28;96920;-74
2021/12/31 07:47:29;;;;;;;1999.90;999.90;;;;;;;8.14;63.42;101126.81;4946909;28;96942;-74
2021/12/31 07:49:57;;;;;;;1999.90;999.90;;;;;;;8.14;63.44;101121.50;4960102;28;97995;-76
2021/12/31 07:52:24;;;;;;;1999.90;999.90;;;;;;;8.17;63.48;101126.00;4943228;28;99116;-74
2021/12/31 07:54:52;;;;;;;1999.90;999.90;;;;;;;8.18;63.41;101120.75;4955585;28;96890;-74
2021/12/31 07:57:20;;;;;;;1999.90;999.90;;;;;;;8.21;63.30;101118.22;4961686;28;96965;-74
2021/12/31 07:59:47;;;;;;;1999.90;999.90;;;;;;;8.23;63.13;101118.28;4926550;28;99287;-74
2021/12/31 08:02:16;;;;;;;1999.90;999.90;;;;;;;8.22;63.06;101112.06;4956329;28;98067;-74
2021/12/31 08:04:44;;;;;;;1999.90;999.90;;;;;;;8.22;63.28;101112.06;4958319;28;97534;-74
2021/12/31 08:07:12;;;;;;;1999.90;999.90;;;;;;;8.23;63.04;101105.94;4961882;28;97043;-75
2021/12/31 08:09:40;;;;;;;1999.90;999.90;;;;;;;8.23;63.15;101103.28;4948943;28;100917;-75
2021/12/31 08:12:09;;;;;;;1999.90;999.90;;;;;;;8.24;63.03;101105.06;4950392;28;100432;-75
2021/12/31 08:14:36;;;;;;;1999.90;999.90;;;;;;;8.27;62.83;101100.72;4944813;28;97211;-75
2021/12/31 08:17:04;;;;;;;1999.90;999.90;;;;;;;8.28;62.83;101099.91;4961956;28;98466;-75
2021/12/31 08:19:33;;;;;;;1999.90;999.90;;;;;;;8.27;62.78;101104.28;4944081;28;97650;-75
2021/12/31 08:22:01;;;;;;;1999.90;999.90;;;;;;;8.24;62.89;101098.84;4960416;28;99058;-75
2021/12/31 08:24:29;;;;;;;1999.90;999.90;;;;;;;8.26;62.73;101098.94;4964145;28;96700;-75
2021/12/31 08:26:56;;;;;;;1999.90;999.90;;;;;;;8.27;62.68;101100.72;4939449;28;96983;-75
2021/12/31 08:29:24;;;;;;;1999.90;999.90;;;;;;;8.25;62.84;101105.97;4941730;28;99682;-76
2021/12/31 08:31:52;;;;;;;1999.90;999.90;;;;;;;8.24;62.78;101099.78;4961969;28;97744;-76
2021/12/31 08:34:20;;;;;;;1999.90;999.90;;;;;;;8.28;62.70;101099.91;4957603;28;97600;-75
2021/12/31 08:36:49;;;;;;;1999.90;999.90;;;;;;;8.27;62.65;101098.06;4959809;28;96853;-75
2021/12/31 08:39:17;;;;;;;1999.90;999.90;;;;;;;8.27;62.68;101103.38;4947269;28;98764;-75
2021/12/31 08:41:45;;;;;;;1999.90;999.90;;;;;;;8.27;62.57;101096.34;4946303;28;100730;-76
2021/12/31 08:44:15;;;;;;;1999.90;999.90;;;;;;;8.28;62.68;101098.13;4974744;28;96937;-75
2021/12/31 08:46:44;;;;;;;1999.90;999.90;;;;;;;8.28;62.64;101102.56;4962533;28;97039;-76
2021/12/31 08:49:12;;;;;;;1999.90;999.90;;;;;;;8.27;62.39;101095.41;4958552;28;98248;-75
2021/12/31 08:51:40;;;;;;;1999.90;999.90;;;;;;;8.27;62.49;101101.63;4974364;28;98948;-75
2021/12/31 08:54:09;;;;;;;1999.90;999.90;;;;;;;8.23;62.20;101100.63;4965467;28;96931;-75
2021/12/31 08:56:36;;;;;;;1999.90;999.90;;;;;;;8.22;61.98;101104.09;4944749;28;97760;-75
2021/12/31 08:59:04;;;;;;;1999.90;999.90;;;;;;;8.27;62.20;101111.34;4948808;28;99697;-75
2021/12/31 09:01:32;;;;;;;1999.90;999.90;;;;;;;8.22;62.48;101119.13;4939380;28;100454;-75
2021/12/31 09:03:59;;;;;;;1999.90;999.90;;;;;;;8.22;62.32;101108.53;4944269;28;96737;-76
2021/12/31 09:06:27;;;;;;;1999.90;999.90;;;;;;;8.24;62.30;101104.16;4960404;28;98368;-75
2021/12/31 09:08:55;;;;;;;1999.90;999.90;;;;;;;8.28;62.04;101092.81;4958037;28;96792;-75
2021/12/31 09:11:24;;;;;;;1999.90;999.90;;;;;;;8.30;61.91;101103.47;4959657;28;98618;-75
2021/12/31 09:13:54;;;;;;;1999.90;999.90;;;;;;;8.31;61.90;101092.03;4936941;28;97035;-76
2021/12/31 09:16:22;;;;;;;1999.90;999.90;;;;;;;8.35;61.89;101078.03;4938679;28;96915;-75
2021/12/31 09:18:50;;;;;;;1999.90;999.90;;;;;;;8.38;61.83;101083.44;4956473;28;99881;-75
2021/12/31 09:21:19;;;;;;;1999.90;999.90;;;;;;;8.40;61.80;101097.66;4940918;28;99442;-76
2021/12/31 09:23:47;;;;;;;1999.90;999.90;;;;;;;8.44;61.59;101099.56;4957846;28;97268;-75
2021/12/31 09:26:16;;;;;;;1999.90;999.90;;;;;;;8.46;61.51;101092.59;4970696;28;97333;-74
2021/12/31 09:28:45;;;;;;;1999.90;999.90;;;;;;;8.48;61.62;101091.78;4958186;28;98697;-75
2021/12/31 09:31:13;;;;;;;1999.90;999.90;;;;;;;8.52;61.41;101082.19;4967734;28;97588;-73
2021/12/31 09:33:41;;;;;;;1999.90;999.90;;;;;;;8.52;61.36;101098.09;4961224;28;97662;-74
2021/12/31 09:36:09;;;;;;;1999.90;999.90;;;;;;;8.55;61.29;101100.88;4966559;28;98265;-74
2021/12/31 09:38:37;;;;;;;1999.90;999.90;;;;;;;8.57;61.54;101105.38;4943840;28;99097;-75
2021/12/31 09:41:04;;;;;;;1999.90;999.90;;;;;;;8.61;61.23;101103.72;4961982;28;99109;-75
2021/12/31 09:43:33;;;;;;;1999.90;999.90;;;;;;;8.64;61.03;101106.50;4956978;28;96801;-75
2021/12/31 09:46:02;;;;;;;1999.90;999.90;;;;;;;8.68;61.29;101101.34;4953794;28;97224;-76
2021/12/31 09:48:30;;;;;;;1999.90;999.90;;;;;;;8.71;60.77;101103.19;4959952;28;98434;-75
2021/12/31 09:51:00;;;;;;;1999.90;999.90;;;;;;;8.72;61.00;101115.59;4954596;28;99029;-76
2021/12/31 09:53:28;;;;;;;1999.90;999.90;;;;;;;8.74;60.82;101116.56;4947226;28;96918;-75
2021/12/31 09:55:57;;;;;;;1999.90;999.90;;;;;;;8.80;60.93;101119.44;4955401;28;97862;-75
2021/12/31 09:58:26;;;;;;;1999.90;999.90;;;;;;;8.79;60.70;101109.66;4942152;28;99581;-76
2021/12/31 10:00:57;;;;;;;1999.90;999.90;;;;;;;8.82;61.06;101104.47;4954847;28;97620;-73
2021/12/31 10:03:29;;;;;;;1999.90;999.90;;;;;;;8.83;60.83;101116.88;4958509;28;96942;-75
2021/12/31 10:05:58;;;;;;;1999.90;999.90;;;;;;;8.86;60.87;101106.38;4941156;28;97394;-75
2021/12/31 10:08:27;;;;;;;1999.90;999.90;;;;;;;8.88;60.68;101108.22;4962861;28;99025;-75
2021/12/31 10:11:05;;;;;;;1999.90;999.90;;;;;;;8.89;60.60;101119.72;4959093;28;96782;-73
2021/12/31 10:13:34;;;;;;;1999.90;999.90;;;;;;;8.91;60.38;101115.38;4941044;28;96791;-74
2021/12/31 10:16:02;;;;;;;1999.90;999.90;;;;;;;8.90;60.66;101116.22;4962961;28;97839;-75
2021/12/31 10:18:33;;;;;;;1999.90;999.90;;;;;;;8.89;60.49;101119.72;4967028;28;97947;-76
2021/12/31 10:21:01;;;;;;;1999.90;999.90;;;;;;;8.85;60.69;101107.22;4964187;28;98598;-76
2021/12/31 10:23:29;;;;;;;1999.90;999.90;;;;;;;8.87;60.77;101118.78;4944060;28;98560;-75
2021/12/31 10:26:08;;;;;;;1999.90;999.90;;;;;;;8.86;60.42;101131.13;4964227;28;97073;-75
2021/12/31 10:28:36;;;;;;;1999.90;999.90;;;;;;;8.87;60.86;101113.47;4962887;28;98881;-76
2021/12/31 10:31:14;;;;;;;1999.90;999.90;;;;;;;8.86;60.51;101109.03;4958109;28;98610;-74
2021/12/31 10:33:46;;;;;;;1999.90;999.90;;;;;;;8.87;60.68;101103.75;4959543;28;97972;-75
2021/12/31 10:36:34;;;;;;;1999.90;999.90;;;;;;;8.87;59.37;101105.50;4963150;28;97182;-74
2021/12/31 10:39:16;;;;;;;1999.90;999.90;;;;;;;8.84;58.51;101101.00;4965656;28;98861;-73
2021/12/31 10:41:45;;;;;;;1999.90;999.90;;;;;;;8.94;60.28;101110.16;4947234;28;100049;-72
2021/12/31 10:44:12;;;;;;;1999.90;999.90;;;;;;;8.97;60.15;101102.31;4945104;28;97270;-74
2021/12/31 10:46:42;;;;;;;1999.90;999.90;;;;;;;8.97;59.97;101102.31;4960979;28;97889;-74
2021/12/31 10:49:13;;;;;;;1999.90;999.90;;;;;;;8.98;60.00;101110.34;4960088;28;99377;-75
2021/12/31 10:51:42;;;;;;;1999.90;999.90;;;;;;;9.00;60.03;101094.44;4962688;28;99560;-75
2021/12/31 10:54:28;;;;;;;1999.90;999.90;;;;;;;9.00;59.74;101100.66;4946999;28;97002;-75
2021/12/31 10:56:57;;;;;;;1999.90;999.90;;;;;;;9.02;59.80;101074.16;4942805;28;98886;-76
2021/12/31 10:59:25;;;;;;;1999.90;999.90;;;;;;;9.02;59.98;101098.06;4955365;28;98767;-75
2021/12/31 11:01:54;;;;;;;1999.90;999.90;;;;;;;9.00;59.98;101091.78;4962926;28;97557;-75